createdAt,value
2017-11-27T00:00:50.081Z,64.02
2017-11-27T00:02:30.876Z,64.02
2017-11-27T00:04:10.361Z,64.04
2017-11-27T00:05:49.943Z,64.03
2017-11-27T00:07:30.743Z,64.04
2017-11-27T00:09:10.126Z,64.06
2017-11-27T00:10:50.521Z,64.06
2017-11-27T00:12:31.666Z,64.06
2017-11-27T00:14:15.932Z,64.04
2017-11-27T00:15:56.249Z,64.03
2017-11-27T00:17:36.733Z,64.03
2017-11-27T00:19:15.942Z,64.04
2017-11-27T00:20:54.924Z,64.03
2017-11-27T00:22:43.130Z,64.01
2017-11-27T00:24:23.237Z,64.01
2017-11-27T00:26:02.997Z,64.03
2017-11-27T00:27:45.745Z,64.04
2017-11-27T00:29:24.697Z,64.05
2017-11-27T00:31:04.601Z,64.03
2017-11-27T00:34:29.899Z,64.02
2017-11-27T00:36:10.124Z,64.01
2017-11-27T00:37:50.316Z,64.01
2017-11-27T00:39:30.025Z,64.00
2017-11-27T00:41:09.634Z,64.00
2017-11-27T00:42:49.027Z,63.95
2017-11-27T00:44:30.037Z,63.95
2017-11-27T00:46:11.549Z,63.92
2017-11-27T00:47:52.952Z,63.92
2017-11-27T00:49:30.122Z,63.94
2017-11-27T00:51:09.475Z,63.91
2017-11-27T00:52:51.140Z,63.92
2017-11-27T00:54:33.451Z,63.95
2017-11-27T00:56:24.946Z,63.96
2017-11-27T00:58:04.544Z,63.97
2017-11-27T00:59:43.268Z,63.97
2017-11-27T01:01:23.448Z,63.95
2017-11-27T01:03:05.157Z,63.96
2017-11-27T01:04:45.416Z,63.97
2017-11-27T01:06:26.607Z,63.97
2017-11-27T01:08:06.555Z,63.95
2017-11-27T01:09:45.954Z,63.96
2017-11-27T01:11:27.762Z,63.89
2017-11-27T01:13:07.940Z,63.92
2017-11-27T01:14:46.540Z,63.92
2017-11-27T01:16:25.640Z,63.93
2017-11-27T01:18:08.446Z,63.95
2017-11-27T01:19:49.138Z,63.97
2017-11-27T01:21:27.847Z,63.97
2017-11-27T01:23:06.959Z,63.96
2017-11-27T01:24:47.346Z,63.95
2017-11-27T01:26:26.750Z,63.95
2017-11-27T01:28:07.064Z,63.95
2017-11-27T01:29:48.838Z,63.93
2017-11-27T01:31:29.346Z,63.92
2017-11-27T01:33:09.758Z,63.93
2017-11-27T01:34:49.082Z,63.96
2017-11-27T01:38:25.063Z,63.97
2017-11-27T01:40:07.075Z,63.99
2017-11-27T01:41:49.389Z,64.00
2017-11-27T01:43:29.888Z,64.00
2017-11-27T01:45:09.695Z,64.01
2017-11-27T01:46:49.809Z,64.00
2017-11-27T01:48:35.073Z,64.00
2017-11-27T01:50:15.836Z,64.02
2017-11-27T01:51:55.851Z,64.02
2017-11-27T01:53:37.431Z,64.00
2017-11-27T01:55:18.333Z,64.03
2017-11-27T01:57:01.640Z,64.02
2017-11-27T01:58:47.071Z,64.01
2017-11-27T02:00:47.364Z,64.01
2017-11-27T02:02:35.859Z,64.01
2017-11-27T02:04:24.780Z,64.02
2017-11-27T02:06:03.956Z,64.01
2017-11-27T02:07:47.165Z,64.02
2017-11-27T02:09:30.672Z,64.01
2017-11-27T02:11:09.774Z,64.01
2017-11-27T02:12:52.008Z,64.02
2017-11-27T02:14:34.012Z,64.05
2017-11-27T02:16:14.377Z,64.02
2017-11-27T02:17:51.463Z,63.98
2017-11-27T02:19:30.058Z,63.98
2017-11-27T02:21:08.331Z,64.01
2017-11-27T02:22:47.443Z,64.03
2017-11-27T02:24:26.114Z,64.04
2017-11-27T02:26:07.123Z,64.05
2017-11-27T02:27:46.304Z,64.05
2017-11-27T02:29:25.401Z,64.06
2017-11-27T02:31:05.493Z,64.08
2017-11-27T02:32:44.692Z,64.08
2017-11-27T02:34:24.188Z,64.06
2017-11-27T02:36:04.387Z,64.06
2017-11-27T02:37:43.292Z,64.06
2017-11-27T02:39:21.785Z,64.06
2017-11-27T02:41:00.584Z,64.05
2017-11-27T02:42:39.484Z,64.04
2017-11-27T02:44:19.384Z,64.01
2017-11-27T02:46:00.079Z,64.01
2017-11-27T02:47:40.988Z,64.03
2017-11-27T02:49:20.386Z,64.03
2017-11-27T02:51:00.079Z,64.04
2017-11-27T02:52:40.885Z,64.05
2017-11-27T02:54:19.875Z,64.06
2017-11-27T02:55:58.506Z,64.06
2017-11-27T02:57:37.575Z,64.04
2017-11-27T02:59:17.086Z,64.03
2017-11-27T03:00:56.869Z,64.04
2017-11-27T03:02:36.271Z,64.04
2017-11-27T03:04:16.774Z,64.06
2017-11-27T03:05:56.874Z,64.05
2017-11-27T03:07:39.670Z,64.04
2017-11-27T03:09:18.372Z,64.02
2017-11-27T03:10:57.863Z,64.02
2017-11-27T03:12:37.222Z,64.01
2017-11-27T03:14:17.272Z,63.99
2017-11-27T03:15:57.076Z,64.01
2017-11-27T03:17:35.569Z,64.00
2017-11-27T03:19:15.988Z,64.00
2017-11-27T03:20:54.670Z,64.02
2017-11-27T03:22:35.471Z,64.04
2017-11-27T03:24:15.876Z,64.04
2017-11-27T03:25:54.386Z,64.05
2017-11-27T03:27:33.989Z,64.05
2017-11-27T03:29:15.300Z,64.04
2017-11-27T03:30:54.205Z,64.05
2017-11-27T03:32:33.800Z,64.04
2017-11-27T03:34:12.408Z,64.05
2017-11-27T03:35:52.325Z,64.06
2017-11-27T03:37:31.320Z,64.06
2017-11-27T03:39:10.217Z,64.07
2017-11-27T03:40:49.123Z,64.06
2017-11-27T03:42:28.151Z,64.03
2017-11-27T03:44:07.047Z,64.04
2017-11-27T03:45:46.329Z,64.05
2017-11-27T03:47:26.935Z,64.04
2017-11-27T03:49:06.034Z,64.04
2017-11-27T03:50:45.137Z,64.04
2017-11-27T03:52:23.637Z,64.03
2017-11-27T03:54:02.769Z,64.03
2017-11-27T03:55:43.336Z,64.03
2017-11-27T03:57:22.938Z,64.03
2017-11-27T03:59:05.928Z,64.02
2017-11-27T04:00:45.627Z,64.02
2017-11-27T04:02:23.628Z,64.03
2017-11-27T04:04:02.819Z,64.04
2017-11-27T04:05:42.022Z,64.05
2017-11-27T04:07:21.021Z,64.04
2017-11-27T04:09:00.336Z,64.04
2017-11-27T04:10:41.314Z,64.03
2017-11-27T04:12:29.714Z,64.05
2017-11-27T04:14:08.317Z,64.06
2017-11-27T04:15:50.710Z,64.07
2017-11-27T04:17:30.191Z,64.08
2017-11-27T04:19:10.934Z,64.08
2017-11-27T04:20:50.415Z,64.06
2017-11-27T04:22:29.219Z,64.06
2017-11-27T04:24:07.821Z,64.05
2017-11-27T04:25:46.411Z,64.04
2017-11-27T04:27:24.808Z,64.03
2017-11-27T04:29:06.104Z,64.02
2017-11-27T04:30:46.514Z,64.02
2017-11-27T04:32:25.219Z,64.02
2017-11-27T04:34:04.705Z,64.03
2017-11-27T04:35:45.399Z,64.04
2017-11-27T04:37:25.497Z,64.04
2017-11-27T04:39:04.296Z,64.04
2017-11-27T04:40:42.924Z,64.01
2017-11-27T04:42:22.105Z,63.99
2017-11-27T04:44:02.300Z,63.97
2017-11-27T04:45:42.593Z,63.96
2017-11-27T04:47:21.899Z,63.97
2017-11-27T04:48:59.878Z,63.98
2017-11-27T04:50:38.504Z,64.00
2017-11-27T04:52:19.000Z,64.02
2017-11-27T04:53:57.506Z,64.03
2017-11-27T04:55:36.299Z,64.04
2017-11-27T04:57:15.301Z,64.05
2017-11-27T04:58:54.593Z,64.05
2017-11-27T05:00:33.601Z,64.03
2017-11-27T05:02:13.596Z,64.02
2017-11-27T05:03:52.401Z,64.02
2017-11-27T05:05:34.508Z,64.01
2017-11-27T05:07:15.695Z,64.00
2017-11-27T05:08:56.720Z,64.01
2017-11-27T05:10:35.326Z,64.00
2017-11-27T05:12:21.450Z,64.02
2017-11-27T05:13:59.750Z,64.01
2017-11-27T05:15:48.053Z,63.99
2017-11-27T05:17:31.286Z,64.02
2017-11-27T05:19:12.171Z,63.99
2017-11-27T05:20:54.139Z,63.98
2017-11-27T05:22:40.554Z,63.98
2017-11-27T05:24:26.060Z,63.99
2017-11-27T05:26:03.932Z,63.99
2017-11-27T05:27:44.915Z,63.99
2017-11-27T05:29:22.767Z,63.98
2017-11-27T05:31:04.877Z,63.98
2017-11-27T05:32:44.465Z,63.99
2017-11-27T05:34:22.075Z,63.99
2017-11-27T05:36:00.071Z,63.98
2017-11-27T05:37:38.799Z,63.99
2017-11-27T05:39:18.377Z,64.01
2017-11-27T05:40:58.074Z,64.03
2017-11-27T05:42:39.666Z,64.02
2017-11-27T05:44:19.361Z,64.04
2017-11-27T05:45:58.258Z,64.05
2017-11-27T05:47:37.057Z,64.06
2017-11-27T05:49:17.447Z,64.07
2017-11-27T05:50:57.555Z,64.08
2017-11-27T05:52:39.143Z,64.05
2017-11-27T05:54:18.737Z,64.06
2017-11-27T05:55:59.172Z,64.08
2017-11-27T05:57:42.539Z,64.09
2017-11-27T05:59:22.010Z,64.06
2017-11-27T06:00:59.108Z,64.08
2017-11-27T06:02:40.634Z,64.09
2017-11-27T06:04:22.626Z,64.11
2017-11-27T06:06:09.728Z,64.11
2017-11-27T06:07:51.530Z,64.11
2017-11-27T06:09:30.334Z,64.12
2017-11-27T06:11:07.445Z,64.11
2017-11-27T06:12:45.020Z,64.10
2017-11-27T06:14:23.557Z,64.10
2017-11-27T06:16:11.052Z,64.12
2017-11-27T06:17:49.748Z,64.12
2017-11-27T06:19:32.349Z,64.19
2017-11-27T06:21:15.150Z,64.12
2017-11-27T06:22:54.496Z,64.11
2017-11-27T06:26:05.524Z,64.11
2017-11-27T06:27:47.355Z,64.12
2017-11-27T06:29:24.487Z,64.11
2017-11-27T06:31:01.433Z,64.10
2017-11-27T06:33:07.579Z,64.09
2017-11-27T06:34:47.253Z,64.09
2017-11-27T06:36:27.253Z,64.09
2017-11-27T06:38:05.449Z,64.08
2017-11-27T06:39:43.994Z,64.08
2017-11-27T06:41:29.652Z,64.07
2017-11-27T06:43:09.754Z,64.07
2017-11-27T06:44:49.853Z,64.07
2017-11-27T06:46:26.932Z,64.07
2017-11-27T06:48:06.256Z,64.07
2017-11-27T06:49:48.178Z,64.06
2017-11-27T06:51:27.756Z,64.05
2017-11-27T06:53:04.854Z,64.05
2017-11-27T06:54:42.520Z,64.04
2017-11-27T06:56:28.387Z,64.03
2017-11-27T06:58:08.901Z,64.05
2017-11-27T06:59:49.597Z,64.04
2017-11-27T07:01:28.935Z,64.04
2017-11-27T07:03:05.955Z,64.06
2017-11-27T07:04:43.944Z,64.03
2017-11-27T07:06:23.203Z,64.02
2017-11-27T07:08:03.409Z,64.01
2017-11-27T07:09:44.012Z,64.01
2017-11-27T07:11:23.533Z,64.01
2017-11-27T07:13:04.216Z,64.00
2017-11-27T07:14:41.940Z,64.00
2017-11-27T07:16:20.956Z,63.98
2017-11-27T07:17:58.534Z,63.99
2017-11-27T07:19:39.020Z,63.99
2017-11-27T07:21:22.922Z,63.99
2017-11-27T07:23:00.020Z,63.99
2017-11-27T07:24:39.915Z,63.98
2017-11-27T07:26:23.408Z,63.98
2017-11-27T07:28:03.628Z,64.01
2017-11-27T07:29:42.052Z,64.00
2017-11-27T07:31:22.921Z,64.00
2017-11-27T07:33:00.934Z,64.01
2017-11-27T07:34:41.125Z,64.02
2017-11-27T07:36:28.202Z,64.01
2017-11-27T07:38:14.965Z,64.05
2017-11-27T07:40:01.525Z,64.03
2017-11-27T07:41:41.102Z,64.03
2017-11-27T07:43:21.103Z,64.04
2017-11-27T07:45:07.980Z,64.01
2017-11-27T07:46:48.781Z,64.02
2017-11-27T07:48:29.698Z,64.03
2017-11-27T07:50:12.701Z,64.02
2017-11-27T07:51:53.414Z,64.02
2017-11-27T07:53:36.296Z,64.03
2017-11-27T07:55:15.798Z,64.02
2017-11-27T07:56:55.402Z,64.01
2017-11-27T07:58:34.687Z,64.02
2017-11-27T08:00:14.919Z,64.02
2017-11-27T08:01:52.459Z,64.04
2017-11-27T08:03:31.531Z,64.06
2017-11-27T08:05:11.924Z,64.05
2017-11-27T08:06:52.328Z,64.04
2017-11-27T08:08:36.362Z,64.04
2017-11-27T08:10:15.945Z,64.05
2017-11-27T08:11:56.951Z,64.04
2017-11-27T08:13:37.542Z,64.05
2017-11-27T08:15:17.130Z,64.04
2017-11-27T08:16:57.148Z,64.05
2017-11-27T08:18:37.535Z,64.04
2017-11-27T08:20:17.159Z,64.04
2017-11-27T08:22:00.255Z,64.04
2017-11-27T08:23:43.053Z,64.03
2017-11-27T08:25:25.863Z,64.03
2017-11-27T08:27:04.957Z,64.05
2017-11-27T08:28:43.659Z,64.04
2017-11-27T08:30:23.284Z,64.04
2017-11-27T08:32:04.450Z,64.06
2017-11-27T08:33:43.649Z,64.04
2017-11-27T08:35:22.548Z,64.04
2017-11-27T08:37:01.436Z,64.03
2017-11-27T08:38:41.433Z,64.04
2017-11-27T08:40:22.341Z,64.04
2017-11-27T08:42:02.422Z,64.05
2017-11-27T08:45:15.322Z,64.04
2017-11-27T08:46:58.716Z,64.05
2017-11-27T08:48:37.515Z,64.05
2017-11-27T08:50:17.417Z,64.07
2017-11-27T08:51:56.119Z,64.08
2017-11-27T08:53:35.320Z,64.10
2017-11-27T08:55:16.011Z,64.11
2017-11-27T08:56:56.510Z,64.12
2017-11-27T08:58:35.213Z,64.13
2017-11-27T09:00:18.211Z,64.14
2017-11-27T09:01:57.109Z,64.14
2017-11-27T09:03:39.915Z,64.14
2017-11-27T09:05:19.822Z,64.14
2017-11-27T09:07:00.006Z,64.15
2017-11-27T09:08:39.309Z,64.15
2017-11-27T09:11:57.904Z,64.15
2017-11-27T09:13:38.200Z,64.16
2017-11-27T09:15:27.242Z,64.14
2017-11-27T09:17:08.090Z,64.15
2017-11-27T09:18:46.790Z,64.14
2017-11-27T09:20:31.413Z,64.14
2017-11-27T09:22:13.226Z,64.14
2017-11-27T09:23:53.919Z,64.16
2017-11-27T09:25:33.097Z,64.17
2017-11-27T09:27:12.493Z,64.18
2017-11-27T09:28:52.794Z,64.16
2017-11-27T09:30:35.308Z,64.15
2017-11-27T09:32:16.092Z,64.18
2017-11-27T09:33:55.088Z,64.18
2017-11-27T09:35:35.700Z,64.20
2017-11-27T09:37:15.397Z,64.20
2017-11-27T09:38:53.997Z,64.20
2017-11-27T09:40:32.518Z,64.21
2017-11-27T09:42:14.017Z,64.21
2017-11-27T09:43:53.128Z,64.26
2017-11-27T09:45:33.234Z,64.23
2017-11-27T09:47:17.537Z,64.24
2017-11-27T09:48:56.437Z,64.24
2017-11-27T09:50:38.846Z,64.25
2017-11-27T09:52:17.352Z,64.26
2017-11-27T09:53:58.556Z,64.25
2017-11-27T09:55:41.556Z,64.24
2017-11-27T09:57:22.064Z,64.25
2017-11-27T09:59:09.125Z,64.26
2017-11-27T10:00:50.662Z,64.28
2017-11-27T10:02:29.960Z,64.29
2017-11-27T10:04:14.768Z,64.30
2017-11-27T10:05:56.373Z,64.32
2017-11-27T10:07:39.399Z,64.33
2017-11-27T10:09:22.575Z,64.32
2017-11-27T10:11:01.971Z,64.34
2017-11-27T10:12:45.670Z,64.36
2017-11-27T10:14:25.977Z,64.35
2017-11-27T10:16:09.666Z,64.36
2017-11-27T10:17:54.286Z,64.38
2017-11-27T10:19:35.160Z,64.39
2017-11-27T10:21:18.755Z,64.40
2017-11-27T10:23:08.969Z,64.42
2017-11-27T10:24:49.251Z,64.41
2017-11-27T10:26:44.062Z,64.41
2017-11-27T10:28:25.458Z,64.43
2017-11-27T10:30:05.961Z,64.43
2017-11-27T10:33:31.043Z,64.45
2017-11-27T10:35:12.640Z,64.46
2017-11-27T10:36:56.339Z,64.47
2017-11-27T10:38:40.516Z,64.48
2017-11-27T10:40:22.156Z,64.50
2017-11-27T10:42:02.652Z,64.49
2017-11-27T10:43:45.542Z,64.51
2017-11-27T10:45:36.847Z,64.50
2017-11-27T10:47:17.852Z,64.51
2017-11-27T10:50:28.553Z,64.54
2017-11-27T10:52:08.059Z,64.56
2017-11-27T10:53:49.370Z,64.55
2017-11-27T10:55:28.474Z,64.54
2017-11-27T10:57:07.075Z,64.55
2017-11-27T10:58:46.975Z,64.55
2017-11-27T11:00:33.387Z,64.55
2017-11-27T11:02:14.384Z,64.56
2017-11-27T11:03:54.079Z,64.56
2017-11-27T11:05:36.035Z,64.56
2017-11-27T11:07:14.982Z,64.56
2017-11-27T11:08:55.110Z,64.57
2017-11-27T11:10:33.788Z,64.58
2017-11-27T11:12:14.191Z,64.59
2017-11-27T11:13:55.293Z,64.60
2017-11-27T11:15:36.516Z,64.61
2017-11-27T11:17:18.194Z,64.61
2017-11-27T11:18:58.093Z,64.61
2017-11-27T11:20:37.602Z,64.60
2017-11-27T11:22:16.701Z,64.62
2017-11-27T11:23:56.498Z,64.62
2017-11-27T11:25:38.396Z,64.63
2017-11-27T11:27:17.484Z,64.64
2017-11-27T11:28:57.090Z,64.64
2017-11-27T11:30:36.690Z,64.66
2017-11-27T11:32:16.594Z,64.66
2017-11-27T11:35:37.284Z,64.67
2017-11-27T11:37:17.984Z,64.68
2017-11-27T11:39:00.001Z,64.70
2017-11-27T11:40:41.782Z,64.70
2017-11-27T11:42:20.486Z,64.72
2017-11-27T11:44:01.381Z,64.74
2017-11-27T11:45:43.079Z,64.76
2017-11-27T11:47:24.091Z,64.74
2017-11-27T11:49:04.295Z,64.75
2017-11-27T11:50:46.683Z,64.75
2017-11-27T11:52:25.395Z,64.78
2017-11-27T11:54:04.094Z,64.78
2017-11-27T11:55:43.197Z,64.78
2017-11-27T11:57:22.588Z,64.78
2017-11-27T11:59:02.693Z,64.79
2017-11-27T12:00:45.511Z,64.79
2017-11-27T12:02:24.609Z,64.82
2017-11-27T12:04:03.587Z,64.84
2017-11-27T12:05:45.789Z,64.87
2017-11-27T12:07:26.492Z,64.89
2017-11-27T12:09:09.387Z,64.91
2017-11-27T12:10:50.388Z,64.93
2017-11-27T12:12:32.484Z,64.94
2017-11-27T12:14:11.890Z,64.94
2017-11-27T12:15:52.885Z,64.94
2017-11-27T12:17:41.590Z,64.95
2017-11-27T12:19:21.083Z,64.93
2017-11-27T12:21:00.985Z,64.93
2017-11-27T12:22:40.590Z,64.94
2017-11-27T12:24:19.890Z,64.95
2017-11-27T12:25:58.385Z,64.96
2017-11-27T12:27:38.587Z,64.98
2017-11-27T12:29:20.291Z,64.99
2017-11-27T12:31:01.902Z,64.98
2017-11-27T12:32:41.734Z,64.99
2017-11-27T12:34:21.107Z,65.01
2017-11-27T12:35:59.616Z,65.02
2017-11-27T12:37:39.324Z,65.05
2017-11-27T12:39:18.724Z,65.05
2017-11-27T12:40:58.922Z,65.06
2017-11-27T12:42:39.955Z,65.06
2017-11-27T12:44:25.553Z,65.07
2017-11-27T12:46:05.335Z,65.08
2017-11-27T12:47:43.938Z,65.11
2017-11-27T12:49:24.947Z,65.11
2017-11-27T12:51:05.241Z,65.12
2017-11-27T12:52:46.241Z,65.14
2017-11-27T12:54:29.545Z,65.16
2017-11-27T12:56:10.867Z,65.17
2017-11-27T12:57:55.549Z,65.21
2017-11-27T12:59:34.948Z,65.21
2017-11-27T13:01:16.649Z,65.23
2017-11-27T13:02:58.953Z,65.24
2017-11-27T13:04:41.045Z,65.26
2017-11-27T13:06:20.151Z,65.27
2017-11-27T13:07:59.943Z,65.28
2017-11-27T13:09:43.743Z,65.30
2017-11-27T13:11:32.941Z,65.31
2017-11-27T13:13:12.041Z,65.33
2017-11-27T13:14:51.643Z,65.32
2017-11-27T13:16:37.648Z,65.33
2017-11-27T13:18:18.749Z,65.33
2017-11-27T13:20:08.335Z,65.33
2017-11-27T13:21:49.952Z,65.33
2017-11-27T13:23:30.157Z,65.34
2017-11-27T13:25:09.240Z,65.35
2017-11-27T13:26:50.441Z,65.36
2017-11-27T13:28:43.138Z,65.37
2017-11-27T13:30:29.835Z,65.38
2017-11-27T13:32:13.237Z,65.39
2017-11-27T13:33:59.092Z,65.40
2017-11-27T13:35:44.435Z,65.41
2017-11-27T13:37:26.838Z,65.41
2017-11-27T13:39:10.529Z,65.42
2017-11-27T13:40:51.030Z,65.42
2017-11-27T13:42:35.083Z,65.42
2017-11-27T13:44:19.216Z,65.43
2017-11-27T13:47:48.345Z,65.44
2017-11-27T13:49:32.904Z,65.46
2017-11-27T13:51:15.914Z,65.46
2017-11-27T13:53:02.415Z,65.47
2017-11-27T13:54:46.540Z,65.50
2017-11-27T13:56:37.533Z,65.51
2017-11-27T13:58:17.014Z,65.51
2017-11-27T13:59:58.814Z,65.52
2017-11-27T14:01:38.812Z,65.54
2017-11-27T14:03:21.619Z,65.54
2017-11-27T14:05:01.018Z,65.54
2017-11-27T14:06:42.731Z,65.56
2017-11-27T14:08:23.913Z,65.57
2017-11-27T14:10:02.513Z,65.57
2017-11-27T14:11:43.006Z,65.60
2017-11-27T14:13:23.725Z,65.61
2017-11-27T14:16:40.044Z,65.61
2017-11-27T14:18:21.269Z,65.62
2017-11-27T14:20:00.272Z,65.64
2017-11-27T14:21:39.450Z,65.63
2017-11-27T14:23:18.359Z,65.65
2017-11-27T14:25:00.226Z,65.65
2017-11-27T14:26:39.570Z,65.67
2017-11-27T14:28:20.448Z,65.69
2017-11-27T14:30:00.451Z,65.70
2017-11-27T14:31:40.775Z,65.71
2017-11-27T14:33:21.671Z,65.74
2017-11-27T14:35:04.280Z,65.73
2017-11-27T14:36:47.873Z,65.72
2017-11-27T14:38:27.378Z,65.72
2017-11-27T14:40:06.484Z,65.74
2017-11-27T14:41:46.180Z,65.75
2017-11-27T14:43:26.383Z,65.77
2017-11-27T14:45:05.402Z,65.79
2017-11-27T14:46:46.479Z,65.79
2017-11-27T14:48:28.386Z,65.78
2017-11-27T14:50:08.760Z,65.80
2017-11-27T14:51:47.657Z,65.82
2017-11-27T14:53:28.461Z,65.83
2017-11-27T14:55:09.551Z,65.85
2017-11-27T14:56:50.358Z,65.87
2017-11-27T14:58:29.958Z,65.87
2017-11-27T15:00:09.757Z,65.87
2017-11-27T15:01:50.253Z,65.87
2017-11-27T15:03:30.348Z,65.86
2017-11-27T15:05:09.769Z,65.88
2017-11-27T15:06:49.755Z,65.89
2017-11-27T15:08:31.550Z,65.89
2017-11-27T15:10:18.451Z,65.89
2017-11-27T15:12:00.349Z,65.89
2017-11-27T15:13:44.147Z,65.89
2017-11-27T15:15:30.992Z,65.89
2017-11-27T15:17:15.598Z,65.90
2017-11-27T15:19:00.854Z,65.91
2017-11-27T15:20:46.086Z,65.93
2017-11-27T15:22:32.349Z,65.92
2017-11-27T15:24:17.183Z,65.93
2017-11-27T15:25:59.069Z,65.95
2017-11-27T15:27:45.464Z,65.95
2017-11-27T15:29:30.595Z,65.95
2017-11-27T15:31:30.674Z,65.96
2017-11-27T15:33:18.388Z,65.95
2017-11-27T15:35:00.457Z,65.96
2017-11-27T15:36:44.560Z,65.95
2017-11-27T15:38:27.240Z,65.98
2017-11-27T15:40:14.491Z,65.98
2017-11-27T15:41:58.524Z,65.99
2017-11-27T15:43:42.677Z,66.02
2017-11-27T15:45:31.268Z,66.01
2017-11-27T15:49:06.275Z,66.03
2017-11-27T15:50:49.567Z,66.03
2017-11-27T15:52:32.193Z,66.06
2017-11-27T15:54:13.193Z,66.09
2017-11-27T15:55:53.179Z,66.11
2017-11-27T15:57:33.172Z,66.11
2017-11-27T15:59:14.273Z,66.11
2017-11-27T16:00:56.393Z,66.12
2017-11-27T16:02:36.397Z,66.14
2017-11-27T16:04:15.685Z,66.15
2017-11-27T16:05:54.885Z,66.15
2017-11-27T16:07:38.702Z,66.16
2017-11-27T16:09:18.985Z,66.16
2017-11-27T16:10:57.995Z,66.17
2017-11-27T16:12:37.015Z,66.18
2017-11-27T16:14:16.393Z,66.17
2017-11-27T16:15:59.897Z,66.19
2017-11-27T16:17:39.307Z,66.17
2017-11-27T16:19:20.300Z,66.17
2017-11-27T16:21:00.003Z,66.21
2017-11-27T16:22:39.592Z,66.18
2017-11-27T16:24:19.010Z,66.19
2017-11-27T16:25:59.302Z,66.19
2017-11-27T16:27:40.003Z,66.21
2017-11-27T16:29:20.009Z,66.21
2017-11-27T16:31:00.797Z,66.23
2017-11-27T16:32:41.200Z,66.25
2017-11-27T16:34:20.386Z,66.25
2017-11-27T16:36:02.588Z,66.26
2017-11-27T16:37:44.783Z,66.28
2017-11-27T16:39:26.491Z,66.29
2017-11-27T16:41:09.492Z,66.30
2017-11-27T16:42:52.523Z,66.30
2017-11-27T16:44:32.094Z,66.30
2017-11-27T16:46:18.288Z,66.32
2017-11-27T16:47:59.793Z,66.31
2017-11-27T16:49:44.397Z,66.31
2017-11-27T16:51:27.481Z,66.33
2017-11-27T16:53:17.900Z,66.33
2017-11-27T16:54:59.897Z,66.34
2017-11-27T16:56:40.787Z,66.33
2017-11-27T16:58:31.318Z,66.33
2017-11-27T17:00:22.289Z,66.35
2017-11-27T17:02:04.196Z,66.35
2017-11-27T17:03:45.103Z,66.36
2017-11-27T17:05:28.509Z,66.36
2017-11-27T17:07:18.114Z,66.37
2017-11-27T17:08:59.611Z,66.38
2017-11-27T17:10:45.322Z,66.40
2017-11-27T17:12:27.197Z,66.40
2017-11-27T17:14:10.182Z,66.40
2017-11-27T17:15:58.926Z,66.40
2017-11-27T17:17:42.294Z,66.42
2017-11-27T17:19:27.630Z,66.41
2017-11-27T17:21:07.452Z,66.43
2017-11-27T17:22:51.342Z,66.42
2017-11-27T17:36:39.139Z,66.52
2017-11-27T17:38:18.232Z,66.53
2017-11-27T17:39:57.574Z,66.54
2017-11-27T17:41:38.328Z,66.55
2017-11-27T17:43:19.057Z,66.57
2017-11-27T17:44:59.121Z,66.58
2017-11-27T17:46:39.514Z,66.58
2017-11-27T17:48:18.922Z,66.58
2017-11-27T17:49:58.901Z,66.60
2017-11-27T17:51:39.917Z,66.60
2017-11-27T17:53:23.951Z,66.61
2017-11-27T17:55:05.827Z,66.61
2017-11-27T17:56:49.729Z,66.62
2017-11-27T17:58:28.727Z,66.63
2017-11-27T18:00:09.429Z,66.63
2017-11-27T18:01:50.423Z,66.62
2017-11-27T18:03:31.121Z,66.62
2017-11-27T18:05:10.443Z,66.63
2017-11-27T18:06:49.524Z,66.62
2017-11-27T18:08:29.027Z,66.63
2017-11-27T18:10:08.635Z,66.67
2017-11-27T18:11:49.131Z,66.64
2017-11-27T18:13:30.825Z,66.65
2017-11-27T18:15:12.248Z,66.66
2017-11-27T18:16:52.524Z,66.69
2017-11-27T18:18:33.754Z,66.69
2017-11-27T18:20:13.822Z,66.69
2017-11-27T18:21:53.432Z,66.70
2017-11-27T18:23:34.825Z,66.70
2017-11-27T18:25:14.815Z,66.68
2017-11-27T18:26:55.637Z,66.69
2017-11-27T18:28:35.923Z,66.69
2017-11-27T18:30:17.021Z,66.69
2017-11-27T18:31:56.923Z,66.71
2017-11-27T18:33:36.818Z,66.70
2017-11-27T18:35:17.516Z,66.72
2017-11-27T18:36:57.218Z,66.71
2017-11-27T18:38:37.927Z,66.71
2017-11-27T18:40:20.034Z,66.71
2017-11-27T18:42:00.126Z,66.72
2017-11-27T18:43:42.803Z,66.74
2017-11-27T18:45:23.806Z,66.75
2017-11-27T18:47:04.139Z,66.74
2017-11-27T18:48:45.548Z,66.75
2017-11-27T18:50:27.262Z,66.78
2017-11-27T18:52:08.061Z,66.78
2017-11-27T18:53:48.776Z,66.78
2017-11-27T18:55:36.382Z,66.77
2017-11-27T18:57:22.884Z,66.76
2017-11-27T18:59:02.989Z,66.77
2017-11-27T19:00:44.487Z,66.77
2017-11-27T19:02:27.580Z,66.78
2017-11-27T19:04:07.588Z,66.77
2017-11-27T19:05:47.586Z,66.78
2017-11-27T19:07:30.625Z,66.78
2017-11-27T19:09:12.293Z,66.79
2017-11-27T19:10:52.999Z,66.79
2017-11-27T19:12:33.111Z,66.79
2017-11-27T19:14:12.793Z,66.79
2017-11-27T19:15:54.509Z,66.81
2017-11-27T19:17:33.691Z,66.82
2017-11-27T19:19:13.604Z,66.83
2017-11-27T19:20:55.589Z,66.83
2017-11-27T19:22:34.701Z,66.84
2017-11-27T19:24:14.387Z,66.85
2017-11-27T19:25:54.889Z,66.88
2017-11-27T19:27:35.591Z,66.91
2017-11-27T19:29:14.789Z,66.92
2017-11-27T19:30:57.273Z,66.93
2017-11-27T19:32:39.787Z,66.95
2017-11-27T19:34:21.386Z,66.95
2017-11-27T19:36:02.076Z,66.96
2017-11-27T19:37:42.771Z,66.96
2017-11-27T19:39:22.966Z,66.96
2017-11-27T19:41:02.880Z,66.96
2017-11-27T19:42:42.869Z,66.92
2017-11-27T19:44:25.168Z,66.92
2017-11-27T19:46:04.962Z,66.94
2017-11-27T19:47:49.469Z,66.94
2017-11-27T19:49:30.063Z,66.95
2017-11-27T19:51:12.466Z,66.96
2017-11-27T19:52:53.557Z,66.96
2017-11-27T19:54:34.185Z,66.96
2017-11-27T19:56:15.572Z,66.96
2017-11-27T19:57:55.883Z,66.97
2017-11-27T19:59:36.787Z,66.99
2017-11-27T20:01:16.801Z,66.97
2017-11-27T20:02:57.811Z,66.98
2017-11-27T20:04:37.298Z,66.97
2017-11-27T20:06:17.999Z,66.96
2017-11-27T20:07:58.099Z,66.97
2017-11-27T20:09:39.000Z,66.98
2017-11-27T20:11:18.696Z,66.97
2017-11-27T20:12:56.083Z,66.99
2017-11-27T20:14:38.423Z,67.00
2017-11-27T20:16:21.663Z,67.00
2017-11-27T20:18:04.126Z,67.01
2017-11-27T20:19:49.913Z,67.02
2017-11-27T20:21:30.640Z,67.03
2017-11-27T20:23:09.332Z,67.01
2017-11-27T20:24:46.965Z,67.01
2017-11-27T20:26:27.826Z,67.01
2017-11-27T20:28:05.511Z,67.03
2017-11-27T20:29:45.410Z,67.02
2017-11-27T20:31:25.999Z,67.04
2017-11-27T20:33:07.305Z,67.03
2017-11-27T20:34:47.407Z,67.02
2017-11-27T20:36:27.598Z,67.03
2017-11-27T20:38:07.595Z,67.02
2017-11-27T20:39:46.890Z,67.04
2017-11-27T20:41:24.516Z,67.06
2017-11-27T20:43:04.015Z,67.05
2017-11-27T20:44:44.201Z,67.05
2017-11-27T20:46:24.807Z,67.08
2017-11-27T20:48:05.492Z,67.09
2017-11-27T20:49:45.896Z,67.09
2017-11-27T20:51:25.093Z,67.08
2017-11-27T20:53:04.594Z,67.09
2017-11-27T20:54:46.894Z,67.08
2017-11-27T20:56:27.399Z,67.06
2017-11-27T20:58:05.000Z,67.06
2017-11-27T20:59:46.527Z,67.05
2017-11-27T21:01:25.898Z,67.06
2017-11-27T21:03:11.886Z,67.05
2017-11-27T21:04:52.502Z,67.06
2017-11-27T21:06:34.182Z,67.06
2017-11-27T21:08:16.678Z,67.08
2017-11-27T21:10:02.282Z,67.07
2017-11-27T21:11:41.956Z,67.08
2017-11-27T21:13:20.877Z,67.09
2017-11-27T21:15:00.487Z,67.08
2017-11-27T21:16:39.985Z,67.08
2017-11-27T21:18:20.885Z,67.08
2017-11-27T21:20:00.089Z,67.09
2017-11-27T21:21:40.988Z,67.09
2017-11-27T21:23:20.316Z,67.11
2017-11-27T21:24:59.384Z,67.11
2017-11-27T21:26:39.082Z,67.11
2017-11-27T21:28:19.201Z,67.10
2017-11-27T21:30:00.384Z,67.11
2017-11-27T21:31:40.993Z,67.13
2017-11-27T21:33:22.086Z,67.13
2017-11-27T21:35:01.291Z,67.13
2017-11-27T21:36:40.878Z,67.12
2017-11-27T21:38:19.604Z,67.10
2017-11-27T21:40:01.762Z,67.05
2017-11-27T21:41:41.614Z,67.01
2017-11-27T21:43:21.218Z,66.97
2017-11-27T21:45:01.426Z,66.94
2017-11-27T21:46:42.798Z,66.92
2017-11-27T21:48:20.901Z,66.92
2017-11-27T21:50:00.641Z,66.90
2017-11-27T21:51:40.654Z,66.87
2017-11-27T21:53:23.234Z,66.85
2017-11-27T21:55:04.145Z,66.86
2017-11-27T21:56:44.648Z,66.86
2017-11-27T21:58:23.963Z,66.84
2017-11-27T22:00:08.838Z,66.84
2017-11-27T22:01:46.301Z,66.83
2017-11-27T22:03:30.553Z,66.82
2017-11-27T22:05:12.544Z,66.82
2017-11-27T22:06:51.664Z,66.84
2017-11-27T22:08:29.466Z,66.82
2017-11-27T22:10:07.569Z,66.83
2017-11-27T22:11:45.649Z,66.84